Time;durP1;ratioP1;P1;durP2;ratioP2;P2;SDS_P1;SDS_P2;PMS_P1;PMS_P2;Temp;Humidity;BMP_temperature;BMP_pressure;BME280_temperature;BME280_humidity;BME280_pressure;Samples;Min_cycle;Max_cycle;Signal;HPM_P1;HPM_P2
2023/01/06 00:01:49;;;;;;;11.27;10.57;;;;;;;;;;5015382;28;20026;-62
2023/01/06 00:04:14;;;;;;;11.43;10.73;;;;;;;;;;5016222;28;20452;-63
2023/01/06 00:06:39;;;;;;;12.93;12.13;;;;;;;;;;5011981;28;20042;-63
2023/01/06 00:09:05;;;;;;;12.07;11.38;;;;;;;;;;5012363;28;20492;-63
2023/01/06 00:11:31;;;;;;;11.20;10.50;;;;;;;;;;5007423;28;20042;-62
2023/01/06 00:13:56;;;;;;;9.93;9.32;;;;;;;;;;5010864;28;20030;-59
2023/01/06 00:16:22;;;;;;;10.95;10.10;;;;;;;;;;5012338;28;20041;-63
2023/01/06 00:18:47;;;;;;;10.93;10.23;;;;;;;;;;5026317;28;20037;-59
2023/01/06 00:21:14;;;;;;;12.15;11.40;;;;;;;;;;5010048;28;20499;-63
2023/01/06 00:23:40;;;;;;;12.43;11.52;;;;;;;;;;5013339;28;20039;-63
2023/01/06 00:26:07;;;;;;;12.55;11.75;;;;;;;;;;5011635;28;20382;-62
2023/01/06 00:28:33;;;;;;;11.77;11.07;;;;;;;;;;5014014;28;20475;-60
2023/01/06 00:31:04;;;;;;;11.32;10.63;;;;;;;;;;5012046;28;20038;-63
2023/01/06 00:33:29;;;;;;;;;;;;;;;;;;5016333;28;20038;-63
2023/01/06 00:35:58;;;;;;;11.93;11.23;;;;;;;;;;5015902;28;19923;-63
2023/01/06 00:38:23;;;;;;;9.98;9.38;;;;;;;;;;5011146;28;20540;-64
2023/01/06 00:40:48;;;;;;;11.35;10.65;;;;;;;;;;5011885;28;20117;-60
2023/01/06 00:43:14;;;;;;;11.60;10.90;;;;;;;;;;5013381;28;20064;-60
2023/01/06 00:45:39;;;;;;;11.57;10.88;;;;;;;;;;5014457;28;20117;-60
2023/01/06 00:48:08;;;;;;;11.95;11.25;;;;;;;;;;5021760;28;20029;-64
2023/01/06 00:50:33;;;;;;;10.65;9.98;;;;;;;;;;5018497;28;20126;-64
2023/01/06 00:52:59;;;;;;;11.25;10.55;;;;;;;;;;5009915;28;20125;-63
2023/01/06 00:55:24;;;;;;;12.52;11.73;;;;;;;;;;5014504;28;20052;-63
2023/01/06 00:57:51;;;;;;;12.77;12.00;;;;;;;;;;5014292;28;20419;-64
2023/01/06 01:00:18;;;;;;;12.20;11.40;;;;;;;;;;5015049;28;20078;-61
2023/01/06 01:02:43;;;;;;;11.20;10.40;;;;;;;;;;5016761;28;20052;-60
2023/01/06 01:05:09;;;;;;;11.63;10.93;;;;;;;;;;5017979;28;20033;-61
2023/01/06 01:07:39;;;;;;;11.75;11.05;;;;;;;;;;5018109;28;20044;-64
2023/01/06 01:10:08;;;;;;;12.43;11.52;;;;;;;;;;5014986;28;20033;-63
2023/01/06 01:12:35;;;;;;;13.10;12.30;;;;;;;;;;5016627;28;20029;-63
2023/01/06 01:15:04;;;;;;;13.48;12.68;;;;;;;;;;5014249;28;20041;-61
2023/01/06 01:17:31;;;;;;;12.93;12.13;;;;;;;;;;5015655;28;20033;-61
2023/01/06 01:19:58;;;;;;;13.73;12.73;;;;;;;;;;5015719;28;20074;-61
2023/01/06 01:22:26;;;;;;;12.18;11.48;;;;;;;;;;5014756;28;20394;-64
2023/01/06 01:24:52;;;;;;;11.82;10.85;;;;;;;;;;5016002;28;20115;-61
2023/01/06 01:27:17;;;;;;;14.90;12.48;;;;;;;;;;5014419;28;20706;-61
2023/01/06 01:29:42;;;;;;;10.45;9.85;;;;;;;;;;5015013;28;20404;-61
2023/01/06 01:32:08;;;;;;;11.32;10.52;;;;;;;;;;5015056;28;20532;-61
2023/01/06 01:34:34;;;;;;;12.93;11.85;;;;;;;;;;5014939;28;20053;-61
2023/01/06 01:36:59;;;;;;;11.10;10.40;;;;;;;;;;5016748;28;20048;-64
2023/01/06 01:39:28;;;;;;;11.15;10.45;;;;;;;;;;5016115;28;20098;-61
2023/01/06 01:41:57;;;;;;;11.18;10.48;;;;;;;;;;5015951;28;20116;-61
2023/01/06 01:44:59;;;;;;;11.00;10.30;;;;;;;;;;5014483;28;20057;-64
2023/01/06 01:47:30;;;;;;;9.88;9.27;;;;;;;;;;5013138;28;20036;-64
2023/01/06 01:50:13;;;;;;;10.45;9.85;;;;;;;;;;5013458;28;20033;-60
2023/01/06 01:52:40;;;;;;;10.52;9.90;;;;;;;;;;5011882;28;20038;-60
2023/01/06 01:55:07;;;;;;;10.55;9.88;;;;;;;;;;5014178;28;20037;-60
2023/01/06 01:57:42;;;;;;;11.30;10.60;;;;;;;;;;5018694;28;20037;-60
2023/01/06 02:00:08;;;;;;;10.27;9.65;;;;;;;;;;5019296;28;20033;-59
2023/01/06 02:02:34;;;;;;;11.05;10.35;;;;;;;;;;5018511;28;20033;-59
2023/01/06 02:05:01;;;;;;;11.52;10.73;;;;;;;;;;5013585;28;20072;-58
2023/01/06 02:07:26;;;;;;;10.60;9.98;;;;;;;;;;5010567;28;20166;-59
2023/01/06 02:10:14;;;;;;;11.40;10.70;;;;;;;;;;5014729;28;20040;-58
2023/01/06 02:12:40;;;;;;;11.13;10.43;;;;;;;;;;5013578;28;20080;-59
2023/01/06 02:15:23;;;;;;;12.13;11.43;;;;;;;;;;5014889;28;20044;-59
2023/01/06 02:18:11;;;;;;;11.60;10.90;;;;;;;;;;5014346;28;20037;-59
2023/01/06 02:20:53;;;;;;;11.43;10.73;;;;;;;;;;5016002;28;20081;-59
2023/01/06 02:23:21;;;;;;;11.32;10.52;;;;;;;;;;5014546;28;20060;-58
2023/01/06 02:26:13;;;;;;;12.02;11.23;;;;;;;;;;5013087;28;20034;-59
2023/01/06 02:28:44;;;;;;;11.90;11.10;;;;;;;;;;5010042;28;20034;-59
2023/01/06 02:31:48;;;;;;;11.30;10.60;;;;;;;;;;5015098;28;20044;-59
2023/01/06 02:34:46;;;;;;;10.88;10.18;;;;;;;;;;5015414;28;20142;-58
2023/01/06 02:37:30;;;;;;;11.30;10.55;;;;;;;;;;5011312;28;20050;-59
2023/01/06 02:40:20;;;;;;;12.13;11.35;;;;;;;;;;5012604;28;20559;-58
2023/01/06 02:43:05;;;;;;;11.43;10.73;;;;;;;;;;5010744;28;20038;-59
2023/01/06 02:45:41;;;;;;;11.35;10.65;;;;;;;;;;5013996;28;20033;-59
2023/01/06 02:48:24;;;;;;;10.80;10.10;;;;;;;;;;5011810;28;20041;-59
2023/01/06 02:50:53;;;;;;;12.05;11.18;;;;;;;;;;5010619;28;20033;-59
2023/01/06 02:53:25;;;;;;;12.82;12.02;;;;;;;;;;5015457;28;20431;-59
2023/01/06 02:55:54;;;;;;;12.98;12.07;;;;;;;;;;5015248;28;20593;-59
2023/01/06 02:58:37;;;;;;;12.52;11.77;;;;;;;;;;5013197;28;20099;-58
2023/01/06 03:01:15;;;;;;;12.18;11.32;;;;;;;;;;5014435;28;20037;-58
2023/01/06 03:03:46;;;;;;;12.10;11.40;;;;;;;;;;5014212;28;20033;-59
2023/01/06 03:06:14;;;;;;;;;;;;;;;;;;5015055;28;20033;-59
2023/01/06 03:08:41;;;;;;;13.27;12.38;;;;;;;;;;5012090;28;19976;-59
2023/01/06 03:11:07;;;;;;;11.57;10.88;;;;;;;;;;5016808;28;20055;-58
2023/01/06 03:13:41;;;;;;;13.35;12.55;;;;;;;;;;5014143;28;20093;-58
2023/01/06 03:16:07;;;;;;;12.80;12.00;;;;;;;;;;5013680;28;20037;-58
2023/01/06 03:18:34;;;;;;;12.45;11.68;;;;;;;;;;5016282;28;20041;-59
2023/01/06 03:21:06;;;;;;;14.15;13.25;;;;;;;;;;5012922;28;20087;-58
2023/01/06 03:23:33;;;;;;;12.13;11.43;;;;;;;;;;5016095;28;20068;-65
2023/01/06 03:25:58;;;;;;;11.73;11.02;;;;;;;;;;5013737;28;20107;-64
2023/01/06 03:28:24;;;;;;;13.20;12.20;;;;;;;;;;5011308;28;20068;-63
2023/01/06 03:30:50;;;;;;;13.05;12.25;;;;;;;;;;5008215;28;20099;-64
2023/01/06 03:33:31;;;;;;;12.98;12.15;;;;;;;;;;5013208;28;20419;-59
2023/01/06 03:36:18;;;;;;;13.38;12.57;;;;;;;;;;5015563;28;20067;-62
2023/01/06 03:39:03;;;;;;;12.18;11.48;;;;;;;;;;5014528;28;20038;-64
2023/01/06 03:44:51;;;;;;;13.48;12.68;;;;;;;;;;5012505;28;20069;-64
2023/01/06 03:47:42;;;;;;;13.05;12.25;;;;;;;;;;5011294;28;20105;-64
2023/01/06 03:50:36;;;;;;;11.93;11.13;;;;;;;;;;5010632;28;20065;-63
2023/01/06 03:53:16;;;;;;;11.50;10.80;;;;;;;;;;5012596;28;20079;-64
2023/01/06 03:55:47;;;;;;;11.60;10.90;;;;;;;;;;5010927;28;20128;-63
2023/01/06 03:58:15;;;;;;;13.07;12.18;;;;;;;;;;5011199;28;20038;-63
2023/01/06 04:00:41;;;;;;;12.15;11.43;;;;;;;;;;5012168;28;20530;-63
2023/01/06 04:03:10;;;;;;;12.40;11.60;;;;;;;;;;5015519;28;20041;-59
2023/01/06 04:05:36;;;;;;;11.52;10.82;;;;;;;;;;5013003;28;20084;-59
2023/01/06 04:08:01;;;;;;;11.65;10.80;;;;;;;;;;5014340;28;20083;-59
2023/01/06 04:10:27;;;;;;;11.73;11.02;;;;;;;;;;5011791;28;20120;-59
2023/01/06 04:12:52;;;;;;;12.07;11.38;;;;;;;;;;5012901;28;20490;-63
2023/01/06 04:15:23;;;;;;;13.60;12.80;;;;;;;;;;5012479;28;20619;-59
2023/01/06 04:17:49;;;;;;;;;;;;;;;;;;5015552;28;20112;-59
2023/01/06 04:20:23;;;;;;;11.18;10.48;;;;;;;;;;5016700;28;20023;-63
2023/01/06 04:22:49;;;;;;;11.68;10.98;;;;;;;;;;5015617;28;20404;-63
2023/01/06 04:25:15;;;;;;;11.35;10.65;;;;;;;;;;5018354;28;20131;-64
2023/01/06 04:27:42;;;;;;;10.95;10.25;;;;;;;;;;5015302;28;20080;-63
2023/01/06 04:30:07;;;;;;;12.45;11.65;;;;;;;;;;5014359;28;20619;-63
2023/01/06 04:32:33;;;;;;;10.80;10.10;;;;;;;;;;5019311;28;20029;-64
2023/01/06 04:34:58;;;;;;;12.07;11.32;;;;;;;;;;5016091;28;20041;-58
2023/01/06 04:37:24;;;;;;;10.10;9.50;;;;;;;;;;5017557;28;20048;-58
2023/01/06 04:39:49;;;;;;;11.88;11.18;;;;;;;;;;5015862;28;20075;-58
2023/01/06 04:42:15;;;;;;;10.10;9.50;;;;;;;;;;5015369;28;20042;-64
2023/01/06 04:44:41;;;;;;;11.55;10.82;;;;;;;;;;5019458;28;20040;-63
2023/01/06 04:47:10;;;;;;;10.43;9.80;;;;;;;;;;5019425;28;20045;-64
2023/01/06 04:49:35;;;;;;;12.57;11.68;;;;;;;;;;5017005;28;20167;-63
2023/01/06 04:52:01;;;;;;;11.35;10.65;;;;;;;;;;5017033;28;20109;-64
2023/01/06 04:54:26;;;;;;;10.77;10.07;;;;;;;;;;5017382;28;20053;-64
2023/01/06 04:56:52;;;;;;;10.82;10.13;;;;;;;;;;5015738;28;20037;-59
2023/01/06 04:59:18;;;;;;;11.25;10.55;;;;;;;;;;5018096;28;20033;-58
2023/01/06 05:01:43;;;;;;;11.73;11.02;;;;;;;;;;5019177;28;20444;-62
2023/01/06 05:04:09;;;;;;;11.82;11.13;;;;;;;;;;5015408;28;20363;-63
2023/01/06 05:06:35;;;;;;;12.25;10.98;;;;;;;;;;5018394;28;20038;-63
2023/01/06 05:09:00;;;;;;;11.60;10.90;;;;;;;;;;5017720;28;20152;-63
2023/01/06 05:11:26;;;;;;;11.60;10.63;;;;;;;;;;5013840;28;20077;-62
2023/01/06 05:13:52;;;;;;;10.50;9.80;;;;;;;;;;5011962;28;20065;-63
2023/01/06 05:16:30;;;;;;;10.90;10.20;;;;;;;;;;5017682;28;20616;-64
2023/01/06 05:18:57;;;;;;;11.45;10.75;;;;;;;;;;5012396;28;20033;-63
2023/01/06 05:21:24;;;;;;;10.45;9.85;;;;;;;;;;5011383;28;20567;-63
2023/01/06 05:23:50;;;;;;;10.40;9.80;;;;;;;;;;5014207;28;20099;-63
2023/01/06 05:26:19;;;;;;;10.85;10.15;;;;;;;;;;5012553;28;20046;-65
2023/01/06 05:28:45;;;;;;;10.85;10.15;;;;;;;;;;5017022;28;20041;-63
2023/01/06 05:31:11;;;;;;;10.68;9.98;;;;;;;;;;5015329;28;20565;-62
2023/01/06 05:33:37;;;;;;;10.68;9.98;;;;;;;;;;5017003;28;20069;-58
2023/01/06 05:36:08;;;;;;;10.52;9.93;;;;;;;;;;5020675;28;20125;-64
2023/01/06 05:38:34;;;;;;;;;;;;;;;;;;5015866;28;20044;-63
2023/01/06 05:41:00;;;;;;;11.43;10.73;;;;;;;;;;5016402;28;20343;-60
2023/01/06 05:43:26;;;;;;;9.98;9.38;;;;;;;;;;5016420;28;20129;-60
2023/01/06 05:45:53;;;;;;;11.10;10.40;;;;;;;;;;5017783;28;20033;-60
2023/01/06 05:48:19;;;;;;;11.05;10.35;;;;;;;;;;5014590;28;20049;-57
2023/01/06 05:50:45;;;;;;;12.05;11.35;;;;;;;;;;5013043;28;20049;-64
2023/01/06 05:53:10;;;;;;;10.07;9.48;;;;;;;;;;5015886;28;20372;-60
2023/01/06 05:55:36;;;;;;;11.23;10.52;;;;;;;;;;5018221;28;20037;-60
2023/01/06 05:58:01;;;;;;;11.50;10.70;;;;;;;;;;5012586;28;20032;-60
2023/01/06 06:00:27;;;;;;;10.55;9.95;;;;;;;;;;5015670;28;20034;-60
2023/01/06 06:02:52;;;;;;;11.48;10.77;;;;;;;;;;5016808;28;20022;-58
2023/01/06 06:05:17;;;;;;;11.30;10.60;;;;;;;;;;5013008;28;20302;-64
2023/01/06 06:07:43;;;;;;;11.15;10.45;;;;;;;;;;5009332;28;20446;-63
2023/01/06 06:10:08;;;;;;;11.18;10.48;;;;;;;;;;5012289;28;20037;-64
2023/01/06 06:12:35;;;;;;;11.18;10.48;;;;;;;;;;5014213;28;20128;-64
2023/01/06 06:15:00;;;;;;;11.18;10.48;;;;;;;;;;5013328;28;20100;-65
2023/01/06 06:17:26;;;;;;;9.75;9.15;;;;;;;;;;5014034;28;20427;-64
2023/01/06 06:19:51;;;;;;;10.15;9.55;;;;;;;;;;5014615;28;20034;-65
2023/01/06 06:22:16;;;;;;;10.65;10.05;;;;;;;;;;5014684;28;20352;-59
2023/01/06 06:24:42;;;;;;;12.02;11.32;;;;;;;;;;5014452;28;20126;-64
2023/01/06 06:27:07;;;;;;;11.40;10.70;;;;;;;;;;5015926;28;20383;-60
2023/01/06 06:29:33;;;;;;;11.40;10.70;;;;;;;;;;5017114;28;20042;-60
2023/01/06 06:31:58;;;;;;;10.57;9.98;;;;;;;;;;5016407;28;20057;-59
2023/01/06 06:34:24;;;;;;;11.27;10.57;;;;;;;;;;5016423;28;20110;-65
2023/01/06 06:36:49;;;;;;;11.07;10.38;;;;;;;;;;5014911;28;20748;-67
2023/01/06 06:39:15;;;;;;;11.68;10.98;;;;;;;;;;5013914;28;20087;-64
2023/01/06 06:41:40;;;;;;;10.77;10.15;;;;;;;;;;5013288;28;20128;-67
2023/01/06 06:44:06;;;;;;;12.02;11.32;;;;;;;;;;5016566;28;20113;-65
2023/01/06 06:46:31;;;;;;;11.48;10.77;;;;;;;;;;5013644;28;20049;-64
2023/01/06 06:48:57;;;;;;;10.57;9.98;;;;;;;;;;5013577;28;20037;-65
2023/01/06 06:51:23;;;;;;;10.75;10.15;;;;;;;;;;5019903;28;20040;-67
2023/01/06 06:53:49;;;;;;;11.23;10.52;;;;;;;;;;5011628;28;20048;-59
2023/01/06 06:56:15;;;;;;;11.23;10.52;;;;;;;;;;5011829;28;20034;-59
2023/01/06 06:58:41;;;;;;;11.50;10.80;;;;;;;;;;5010499;28;20071;-59
2023/01/06 07:01:08;;;;;;;11.00;10.32;;;;;;;;;;5015028;28;20120;-65
2023/01/06 07:03:34;;;;;;;11.90;11.20;;;;;;;;;;5013301;28;20034;-64
2023/01/06 07:05:59;;;;;;;11.32;10.63;;;;;;;;;;5016493;28;20038;-65
2023/01/06 07:08:26;;;;;;;11.55;10.85;;;;;;;;;;5016543;28;20036;-64
2023/01/06 07:10:52;;;;;;;11.07;10.38;;;;;;;;;;5015043;28;20034;-59
2023/01/06 07:13:17;;;;;;;11.35;10.65;;;;;;;;;;5013749;28;20048;-66
2023/01/06 07:15:43;;;;;;;12.38;11.68;;;;;;;;;;5015511;28;20029;-59
2023/01/06 07:18:08;;;;;;;11.70;11.00;;;;;;;;;;5015504;28;20037;-59
2023/01/06 07:20:35;;;;;;;11.55;10.85;;;;;;;;;;5032036;28;20368;-59
2023/01/06 07:23:01;;;;;;;10.32;9.73;;;;;;;;;;5015676;28;20113;-60
2023/01/06 07:25:27;;;;;;;12.18;11.48;;;;;;;;;;5015050;28;20485;-65
2023/01/06 07:27:54;;;;;;;12.10;11.40;;;;;;;;;;5018591;28;20033;-59
2023/01/06 07:30:20;;;;;;;11.30;10.60;;;;;;;;;;5032637;28;20037;-57
2023/01/06 07:32:46;;;;;;;12.65;11.93;;;;;;;;;;5016667;28;20037;-57
2023/01/06 07:35:12;;;;;;;11.95;11.25;;;;;;;;;;5016493;28;20106;-59
2023/01/06 07:37:37;;;;;;;11.52;10.82;;;;;;;;;;5017003;28;20079;-64
2023/01/06 07:40:03;;;;;;;11.80;11.10;;;;;;;;;;5019324;28;20132;-59
2023/01/06 07:42:28;;;;;;;11.00;10.30;;;;;;;;;;5016846;28;20112;-66
2023/01/06 07:44:53;;;;;;;11.85;11.15;;;;;;;;;;5016379;28;20520;-66
2023/01/06 07:47:19;;;;;;;12.32;11.63;;;;;;;;;;5014981;28;20061;-65
2023/01/06 07:49:44;;;;;;;13.18;12.38;;;;;;;;;;5016928;28;20767;-59
2023/01/06 07:52:09;;;;;;;13.10;12.30;;;;;;;;;;5031166;28;20022;-60
2023/01/06 07:54:35;;;;;;;11.75;11.05;;;;;;;;;;5019235;28;20467;-60
2023/01/06 07:57:00;;;;;;;12.25;11.55;;;;;;;;;;5020277;28;20478;-60
2023/01/06 07:59:25;;;;;;;12.00;11.27;;;;;;;;;;5019374;28;20812;-65
2023/01/06 08:01:51;;;;;;;11.10;10.40;;;;;;;;;;5018867;28;20034;-65
2023/01/06 08:04:16;;;;;;;11.80;11.10;;;;;;;;;;5017734;28;20061;-59
2023/01/06 08:06:41;;;;;;;11.40;10.70;;;;;;;;;;5004166;28;20041;-59
2023/01/06 08:09:07;;;;;;;12.32;11.63;;;;;;;;;;5018098;28;20052;-59
2023/01/06 08:11:32;;;;;;;11.30;10.48;;;;;;;;;;5014409;28;20073;-59
2023/01/06 08:13:58;;;;;;;10.70;10.10;;;;;;;;;;5012925;28;20041;-65
2023/01/06 08:16:23;;;;;;;11.73;11.02;;;;;;;;;;5016589;28;20037;-64
2023/01/06 08:18:48;;;;;;;11.30;10.60;;;;;;;;;;5015643;28;20041;-59
2023/01/06 08:21:14;;;;;;;11.48;10.75;;;;;;;;;;5016543;28;20051;-59
2023/01/06 08:23:39;;;;;;;11.65;10.95;;;;;;;;;;5015941;28;20471;-66
2023/01/06 08:26:09;;;;;;;11.00;10.30;;;;;;;;;;5015415;28;20544;-59
2023/01/06 08:28:34;;;;;;;11.05;10.25;;;;;;;;;;5017644;28;20454;-59
2023/01/06 08:31:00;;;;;;;11.05;10.35;;;;;;;;;;5019070;28;20102;-59
2023/01/06 08:33:26;;;;;;;11.80;11.10;;;;;;;;;;5015393;28;20069;-64
2023/01/06 08:36:02;;;;;;;11.05;10.35;;;;;;;;;;5018139;28;20122;-65
2023/01/06 08:38:29;;;;;;;11.13;10.43;;;;;;;;;;5014872;28;20127;-65
2023/01/06 08:40:55;;;;;;;10.93;10.25;;;;;;;;;;5015494;28;20044;-65
2023/01/06 08:43:21;;;;;;;10.07;9.48;;;;;;;;;;5017553;28;20040;-65
2023/01/06 08:45:46;;;;;;;10.70;10.00;;;;;;;;;;5018477;28;20701;-64
2023/01/06 08:48:12;;;;;;;11.02;10.32;;;;;;;;;;5015625;28;20056;-64
2023/01/06 08:50:39;;;;;;;9.93;9.25;;;;;;;;;;5014745;28;20045;-63
2023/01/06 08:53:05;;;;;;;9.93;9.32;;;;;;;;;;5011850;28;20108;-64
2023/01/06 08:55:31;;;;;;;9.98;9.38;;;;;;;;;;5016003;28;20069;-64
2023/01/06 08:57:56;;;;;;;9.93;9.32;;;;;;;;;;5017097;28;20657;-64
2023/01/06 09:00:22;;;;;;;9.88;9.27;;;;;;;;;;5017585;28;20038;-58
2023/01/06 09:02:47;;;;;;;10.25;9.63;;;;;;;;;;5014042;28;20167;-58
2023/01/06 09:05:13;;;;;;;10.02;9.43;;;;;;;;;;5015976;28;20069;-58
2023/01/06 09:07:38;;;;;;;9.30;8.70;;;;;;;;;;5017086;28;20509;-58
2023/01/06 09:10:05;;;;;;;9.82;9.23;;;;;;;;;;5010855;28;20038;-58
2023/01/06 09:12:30;;;;;;;10.52;9.90;;;;;;;;;;5032547;28;20041;-59
2023/01/06 09:14:55;;;;;;;9.80;9.20;;;;;;;;;;5016759;28;20731;-60
2023/01/06 09:17:21;;;;;;;9.63;9.02;;;;;;;;;;5014199;28;20052;-58
2023/01/06 09:19:46;;;;;;;9.82;9.23;;;;;;;;;;5028221;28;20057;-60
2023/01/06 09:22:12;;;;;;;11.20;10.50;;;;;;;;;;5017732;28;20052;-58
2023/01/06 09:24:37;;;;;;;9.18;8.57;;;;;;;;;;5015868;28;20041;-65
2023/01/06 09:27:02;;;;;;;9.93;9.32;;;;;;;;;;5031587;28;20040;-65
2023/01/06 09:29:28;;;;;;;10.68;10.02;;;;;;;;;;5016395;28;20053;-63
2023/01/06 09:31:53;;;;;;;10.80;10.15;;;;;;;;;;5014056;28;20527;-59
2023/01/06 09:34:18;;;;;;;9.73;9.13;;;;;;;;;;5013698;28;20048;-61
2023/01/06 09:36:44;;;;;;;10.75;10.05;;;;;;;;;;5015160;28;20124;-60
2023/01/06 09:39:09;;;;;;;10.10;9.40;;;;;;;;;;5015097;28;20105;-59
2023/01/06 09:41:56;;;;;;;11.05;10.35;;;;;;;;;;5015800;28;20033;-60
2023/01/06 09:44:30;;;;;;;9.70;9.10;;;;;;;;;;5018288;28;20056;-59
2023/01/06 09:46:57;;;;;;;9.60;9.00;;;;;;;;;;5015766;28;20025;-59
2023/01/06 09:49:48;;;;;;;10.50;9.90;;;;;;;;;;5013082;28;20041;-65
2023/01/06 09:52:23;;;;;;;;;;;;;;;;;;5010790;28;20095;-65
2023/01/06 09:54:56;;;;;;;9.93;9.32;;;;;;;;;;5010798;28;19916;-59
2023/01/06 09:57:31;;;;;;;11.07;10.38;;;;;;;;;;5016032;28;20049;-60
2023/01/06 10:00:03;;;;;;;10.15;9.55;;;;;;;;;;5010553;28;20383;-60
2023/01/06 10:02:37;;;;;;;10.98;10.27;;;;;;;;;;5015956;28;20033;-60
2023/01/06 10:05:24;;;;;;;10.93;10.23;;;;;;;;;;5015797;28;20025;-60
2023/01/06 10:07:59;;;;;;;10.57;9.93;;;;;;;;;;5013972;28;20446;-59
2023/01/06 10:10:27;;;;;;;10.43;9.82;;;;;;;;;;5013115;28;20037;-59
2023/01/06 10:13:14;;;;;;;11.10;10.40;;;;;;;;;;5027607;28;20033;-59
2023/01/06 10:15:47;;;;;;;9.32;8.73;;;;;;;;;;5014896;28;20113;-59
2023/01/06 10:18:13;;;;;;;10.55;9.85;;;;;;;;;;5012983;28;20803;-64
2023/01/06 10:20:52;;;;;;;9.35;8.75;;;;;;;;;;5012776;28;20038;-64
2023/01/06 10:23:51;;;;;;;9.98;9.38;;;;;;;;;;5014865;28;20116;-59
2023/01/06 10:26:29;;;;;;;10.27;9.57;;;;;;;;;;5014157;28;20072;-59
2023/01/06 10:29:01;;;;;;;10.13;9.52;;;;;;;;;;5013461;28;20037;-63
2023/01/06 10:31:33;;;;;;;9.82;9.23;;;;;;;;;;5013544;28;20072;-59
2023/01/06 10:34:00;;;;;;;8.98;8.38;;;;;;;;;;5016114;28;20033;-59
2023/01/06 10:36:32;;;;;;;10.00;9.18;;;;;;;;;;5013053;28;20044;-59
2023/01/06 10:38:59;;;;;;;9.65;9.05;;;;;;;;;;5015248;28;20033;-59
2023/01/06 10:41:44;;;;;;;9.60;9.00;;;;;;;;;;5029792;28;20037;-59
2023/01/06 10:44:10;;;;;;;10.10;9.50;;;;;;;;;;5013019;28;20124;-63
2023/01/06 10:46:36;;;;;;;10.27;9.68;;;;;;;;;;5016018;28;20395;-63
2023/01/06 10:49:04;;;;;;;9.73;9.13;;;;;;;;;;5021533;28;20057;-64
2023/01/06 10:51:39;;;;;;;9.70;9.10;;;;;;;;;;5013128;28;20038;-65
2023/01/06 10:54:09;;;;;;;10.18;9.57;;;;;;;;;;5016025;28;20101;-64
2023/01/06 10:56:36;;;;;;;9.20;8.60;;;;;;;;;;5012080;28;20037;-59
2023/01/06 10:59:08;;;;;;;9.55;8.95;;;;;;;;;;5010413;28;20117;-58
2023/01/06 11:01:36;;;;;;;10.40;9.80;;;;;;;;;;5012969;28;20236;-65
2023/01/06 11:04:07;;;;;;;11.63;10.93;;;;;;;;;;5013684;28;20034;-64
2023/01/06 11:06:35;;;;;;;9.82;9.23;;;;;;;;;;5015956;28;20073;-64
2023/01/06 11:09:20;;;;;;;11.45;10.65;;;;;;;;;;5013306;28;20379;-64
2023/01/06 11:11:51;;;;;;;10.20;9.60;;;;;;;;;;5011682;28;20102;-64
2023/01/06 11:14:19;;;;;;;9.98;9.32;;;;;;;;;;5014675;28;20048;-64
2023/01/06 11:16:55;;;;;;;10.60;9.90;;;;;;;;;;5019663;28;20053;-64
2023/01/06 11:19:38;;;;;;;10.50;9.90;;;;;;;;;;5013289;28;20514;-64
2023/01/06 11:22:25;;;;;;;10.93;10.13;;;;;;;;;;5013909;28;20124;-64
2023/01/06 11:24:54;;;;;;;11.00;10.30;;;;;;;;;;5012895;28;20065;-63
2023/01/06 11:27:19;;;;;;;10.48;9.77;;;;;;;;;;5019551;28;20037;-59
2023/01/06 11:29:45;;;;;;;11.10;10.40;;;;;;;;;;5004771;28;20529;-58
2023/01/06 11:32:29;;;;;;;10.35;9.48;;;;;;;;;;5011571;28;20064;-64
2023/01/06 11:34:58;;;;;;;9.82;9.23;;;;;;;;;;4997235;28;20037;-65
2023/01/06 11:37:33;;;;;;;10.40;9.80;;;;;;;;;;5014045;28;20072;-64
2023/01/06 11:40:00;;;;;;;11.45;10.75;;;;;;;;;;5011827;28;20041;-65
2023/01/06 11:42:26;;;;;;;10.63;10.02;;;;;;;;;;5028126;28;20036;-64
2023/01/06 11:44:51;;;;;;;10.45;9.85;;;;;;;;;;5010798;28;20033;-61
2023/01/06 11:47:23;;;;;;;10.30;9.65;;;;;;;;;;5014205;28;20158;-59
2023/01/06 11:49:52;;;;;;;10.30;9.70;;;;;;;;;;5012124;28;20563;-61
2023/01/06 11:52:19;;;;;;;9.82;9.23;;;;;;;;;;5014183;28;20041;-61
2023/01/06 11:54:56;;;;;;;9.50;8.90;;;;;;;;;;5012018;28;20118;-64
2023/01/06 11:57:44;;;;;;;10.50;9.90;;;;;;;;;;5009807;28;20391;-65
2023/01/06 12:00:24;;;;;;;9.98;9.27;;;;;;;;;;5011607;28;20037;-64
2023/01/06 12:03:23;;;;;;;10.23;9.63;;;;;;;;;;5014283;28;20045;-64
2023/01/06 12:06:13;;;;;;;10.32;9.73;;;;;;;;;;5011506;28;20492;-64
2023/01/06 12:08:51;;;;;;;9.93;9.30;;;;;;;;;;5016582;28;20523;-59
2023/01/06 12:11:24;;;;;;;10.00;9.40;;;;;;;;;;5015003;28;20280;-59
2023/01/06 12:13:50;;;;;;;10.95;10.25;;;;;;;;;;5018233;28;20060;-59
2023/01/06 12:16:34;;;;;;;10.70;10.10;;;;;;;;;;5013998;28;20363;-64
2023/01/06 12:19:00;;;;;;;10.43;9.80;;;;;;;;;;5012622;28;20044;-64
2023/01/06 12:21:31;;;;;;;10.48;9.88;;;;;;;;;;5012717;28;20033;-64
2023/01/06 12:24:04;;;;;;;9.90;9.30;;;;;;;;;;5012753;28;20056;-58
2023/01/06 12:26:31;;;;;;;9.48;8.88;;;;;;;;;;5013057;28;20395;-65
2023/01/06 12:28:58;;;;;;;9.88;9.27;;;;;;;;;;5013571;28;20582;-59
2023/01/06 12:31:34;;;;;;;10.20;9.60;;;;;;;;;;5011642;28;20108;-59
2023/01/06 12:34:04;;;;;;;10.25;9.65;;;;;;;;;;5011177;28;20046;-64
2023/01/06 12:36:38;;;;;;;11.23;10.52;;;;;;;;;;5011941;28;20045;-63
2023/01/06 12:39:11;;;;;;;10.05;9.45;;;;;;;;;;5014221;28;20037;-59
2023/01/06 12:41:41;;;;;;;10.73;10.10;;;;;;;;;;5018727;28;20533;-63
2023/01/06 12:44:25;;;;;;;10.48;9.85;;;;;;;;;;5017152;28;20360;-66
2023/01/06 12:47:00;;;;;;;10.18;9.57;;;;;;;;;;5019245;28;20034;-59
2023/01/06 12:49:53;;;;;;;10.75;10.05;;;;;;;;;;5020778;28;20041;-60
2023/01/06 12:52:25;;;;;;;10.38;9.77;;;;;;;;;;5017632;28;20045;-59
2023/01/06 12:54:54;;;;;;;10.00;9.40;;;;;;;;;;5016068;28;20063;-59
2023/01/06 12:57:29;;;;;;;10.02;9.43;;;;;;;;;;5017205;28;20474;-59
2023/01/06 13:00:16;;;;;;;9.80;9.20;;;;;;;;;;5012469;28;20042;-59
2023/01/06 13:03:00;;;;;;;10.00;9.40;;;;;;;;;;5018845;28;20034;-59
2023/01/06 13:05:47;;;;;;;10.02;9.43;;;;;;;;;;5018410;28;20037;-65
2023/01/06 13:08:18;;;;;;;10.00;9.40;;;;;;;;;;5013899;28;20038;-65
2023/01/06 13:11:02;;;;;;;10.30;9.70;;;;;;;;;;5014266;28;20034;-64
2023/01/06 13:13:41;;;;;;;10.13;9.52;;;;;;;;;;5015350;28;20045;-59
2023/01/06 13:16:27;;;;;;;9.90;9.30;;;;;;;;;;5015303;28;20694;-60
2023/01/06 13:19:26;;;;;;;10.10;9.50;;;;;;;;;;5015222;28;20111;-65
2023/01/06 13:21:54;;;;;;;10.35;9.63;;;;;;;;;;5014137;28;20052;-60
2023/01/06 13:24:26;;;;;;;9.60;9.00;;;;;;;;;;5014303;28;20045;-65
2023/01/06 13:27:06;;;;;;;10.18;9.57;;;;;;;;;;5016016;28;20058;-65
2023/01/06 13:30:14;;;;;;;10.70;10.00;;;;;;;;;;5013421;28;20029;-64
2023/01/06 13:32:54;;;;;;;9.80;9.20;;;;;;;;;;4986591;28;20050;-60
2023/01/06 13:35:39;;;;;;;9.63;9.02;;;;;;;;;;5013078;28;20030;-60
2023/01/06 13:38:32;;;;;;;10.82;10.13;;;;;;;;;;5009781;28;20116;-65
2023/01/06 13:41:01;;;;;;;10.30;9.70;;;;;;;;;;5015284;28;20045;-60
2023/01/06 13:43:31;;;;;;;10.48;9.88;;;;;;;;;;5016590;28;20042;-65
2023/01/06 13:46:00;;;;;;;11.00;10.30;;;;;;;;;;5010541;28;20127;-61
2023/01/06 13:48:32;;;;;;;9.23;8.63;;;;;;;;;;5015290;28;20044;-60
2023/01/06 13:51:01;;;;;;;10.38;9.77;;;;;;;;;;5010263;28;20530;-60
2023/01/06 13:53:34;;;;;;;9.60;9.00;;;;;;;;;;5012572;28;20079;-60
2023/01/06 13:56:11;;;;;;;11.10;10.30;;;;;;;;;;5014591;28;20037;-60
2023/01/06 13:58:39;;;;;;;10.15;9.55;;;;;;;;;;5014921;28;20532;-60
2023/01/06 14:01:10;;;;;;;10.75;10.05;;;;;;;;;;5013119;28;20045;-61
2023/01/06 14:03:41;;;;;;;11.00;10.30;;;;;;;;;;5016698;28;20036;-60
2023/01/06 14:06:10;;;;;;;10.90;10.20;;;;;;;;;;5015428;28;20034;-65
2023/01/06 14:08:39;;;;;;;10.60;10.00;;;;;;;;;;5021334;28;20048;-65
2023/01/06 14:11:30;;;;;;;10.50;9.85;;;;;;;;;;5011822;28;20978;-65
2023/01/06 14:14:05;;;;;;;10.45;9.85;;;;;;;;;;5013006;28;20033;-65
2023/01/06 14:16:46;;;;;;;9.82;9.23;;;;;;;;;;5015337;28;20059;-63
2023/01/06 14:19:25;;;;;;;10.38;9.77;;;;;;;;;;5013614;28;20029;-60
2023/01/06 14:21:54;;;;;;;9.85;9.25;;;;;;;;;;5013231;28;20038;-59
2023/01/06 14:24:30;;;;;;;9.68;9.07;;;;;;;;;;5017410;28;20071;-60
2023/01/06 14:27:01;;;;;;;11.05;10.18;;;;;;;;;;5013690;28;20044;-63
2023/01/06 14:29:39;;;;;;;10.55;9.95;;;;;;;;;;5012787;28;20041;-64
2023/01/06 14:32:09;;;;;;;10.18;9.57;;;;;;;;;;5010069;28;20080;-60
2023/01/06 14:34:37;;;;;;;10.55;9.95;;;;;;;;;;5011075;28;20030;-65
2023/01/06 14:37:09;;;;;;;9.30;8.70;;;;;;;;;;5008964;28;20160;-59
2023/01/06 14:39:37;;;;;;;10.13;9.52;;;;;;;;;;5011533;28;20938;-64
2023/01/06 14:42:07;;;;;;;10.40;9.80;;;;;;;;;;5011388;28;20030;-63
2023/01/06 14:44:43;;;;;;;10.13;9.52;;;;;;;;;;5014691;28;20038;-65
2023/01/06 14:47:16;;;;;;;10.52;9.82;;;;;;;;;;5015044;28;20586;-60
2023/01/06 14:49:54;;;;;;;10.32;9.73;;;;;;;;;;5013514;28;20471;-60